Time;durP1;ratioP1;P1;durP2;ratioP2;P2;SDS_P1;SDS_P2;PMS_P1;PMS_P2;Temp;Humidity;BMP_temperature;BMP_pressure;BME280_temperature;BME280_humidity;BME280_pressure;Samples;Min_cycle;Max_cycle;Signal;HPM_P1;HPM_P2
2021/05/22 05:45:31;;;;;;;;;;;;;;;;;;;;;
2021/05/22 06:49:32;;;;;;;3.25;1.65;;;;;;;18.47;57.50;101056.70;1458171;96;21778;-83
2021/05/22 06:52:02;;;;;;;4.03;1.90;;;;;;;18.56;61.06;101054.45;1487755;95;21167;-83
2021/05/22 06:54:33;;;;;;;2.30;1.75;;;;;;;18.64;57.01;101044.92;1603364;82;21072;-86
2021/05/22 06:56:58;;;;;;;2.05;1.57;;;;;;;18.68;56.81;101037.05;1702716;82;20985;-81
2021/05/22 06:59:26;;;;;;;4.85;1.82;;;;;;;18.74;57.06;101041.68;1678650;82;21045;-82
2021/05/22 07:01:53;;;;;;;77.62;4.20;;;;;;;18.80;57.40;101042.36;1749329;80;22072;-85
2021/05/22 07:04:20;;;;;;;4.97;1.60;;;;;;;18.88;56.02;101041.06;1721174;82;21084;-83
2021/05/22 07:06:49;;;;;;;2.90;1.70;;;;;;;19.00;51.23;101044.78;1737984;82;21174;-82
2021/05/22 07:09:16;;;;;;;9.63;1.70;;;;;;;19.07;54.14;101047.10;1744424;80;21097;-81
2021/05/22 07:11:45;;;;;;;1.60;1.50;;;;;;;19.11;51.02;101039.18;1742983;80;21540;-87
2021/05/22 07:14:12;;;;;;;5.05;1.57;;;;;;;19.14;52.84;101038.88;1743942;80;21095;-82
2021/05/22 07:16:40;;;;;;;1.65;1.32;;;;;;;19.18;51.23;101044.17;1737024;81;21084;-82
2021/05/22 07:19:07;;;;;;;2.47;1.40;;;;;;;19.25;50.94;101039.56;1712664;82;21596;-88
2021/05/22 07:21:36;;;;;;;5.30;1.90;;;;;;;19.31;50.71;101032.30;1689290;82;21059;-83
2021/05/22 07:24:04;;;;;;;3.35;1.70;;;;;;;19.37;49.76;101028.53;1676565;83;21530;-87
2021/05/22 07:26:31;;;;;;;2.60;1.30;;;;;;;19.45;52.53;101019.77;1734500;79;21033;-85
2021/05/22 07:28:59;;;;;;;3.65;1.57;;;;;;;19.49;47.99;101018.47;1762393;79;21080;-84
2021/05/22 07:31:27;;;;;;;4.00;1.70;;;;;;;19.55;47.99;101028.84;1740961;81;21116;-83
2021/05/22 07:33:55;;;;;;;25.40;3.45;;;;;;;19.60;49.03;101026.56;1720345;82;21577;-85
2021/05/22 07:36:22;;;;;;;4.30;1.90;;;;;;;19.70;52.07;101023.73;1757467;79;21065;-81
2021/05/22 07:38:50;;;;;;;2.70;1.57;;;;;;;19.85;52.43;101016.02;1706757;82;21146;-86
2021/05/22 07:41:16;;;;;;;1.72;1.60;;;;;;;20.04;53.35;101012.66;1701848;82;21095;-83
2021/05/22 07:43:44;;;;;;;9.23;1.82;;;;;;;20.16;50.78;101009.50;1658032;84;21070;-82
2021/05/22 07:46:11;;;;;;;4.37;1.80;;;;;;;20.17;49.45;101010.34;1733094;81;21041;-83
2021/05/22 07:48:38;;;;;;;3.77;1.70;;;;;;;20.17;49.51;101008.51;1737987;80;21674;-82
2021/05/22 07:51:06;;;;;;;2.77;1.55;;;;;;;20.24;46.88;101007.83;1740615;81;21082;-82
2021/05/22 07:53:33;;;;;;;6.12;1.57;;;;;;;20.20;45.68;101011.81;1734687;81;21183;-83
2021/05/22 07:56:00;;;;;;;5.83;1.95;;;;;;;20.16;46.87;101005.53;1749603;80;21021;-84
2021/05/22 07:58:27;;;;;;;2.65;1.75;;;;;;;20.17;45.16;101001.09;1743287;80;21096;-83
2021/05/22 08:00:55;;;;;;;3.77;1.42;;;;;;;20.18;46.70;100995.63;1751296;80;21060;-85
2021/05/22 08:03:22;;;;;;;2.17;1.60;;;;;;;20.26;45.09;101000.08;1750632;80;21112;-86
2021/05/22 08:05:49;;;;;;;3.62;1.80;;;;;;;20.33;45.61;101001.52;1697255;83;21992;-87
2021/05/22 08:08:16;;;;;;;2.33;1.60;;;;;;;20.39;45.04;100986.28;1717262;81;21181;-86
2021/05/22 08:10:44;;;;;;;10.68;5.90;;;;;;;20.31;44.75;100985.84;1709210;81;21088;-88
2021/05/22 08:13:12;;;;;;;3.47;2.30;;;;;;;20.27;45.77;100980.55;1726923;79;21065;-87
2021/05/22 08:15:41;;;;;;;4.40;1.90;;;;;;;20.26;46.42;100978.92;1750558;80;21534;-84
2021/05/22 08:18:13;;;;;;;2.95;1.52;;;;;;;20.25;46.66;100981.72;1741753;80;21594;-88
2021/05/22 08:20:40;;;;;;;2.42;1.60;;;;;;;20.26;44.56;100984.69;1668568;84;21643;-87
2021/05/22 08:23:09;;;;;;;1.40;1.30;;;;;;;20.36;48.20;100980.52;1736369;81;21048;-89
2021/05/22 08:25:44;;;;;;;13.62;4.83;;;;;;;20.49;44.01;100975.02;1677032;82;21034;-88
2021/05/22 08:28:21;;;;;;;9.55;2.40;;;;;;;20.56;45.54;100966.38;1698214;82;21240;-90
2021/05/22 08:30:49;;;;;;;3.05;1.70;;;;;;;20.72;46.75;100961.01;1672747;82;21066;-92
2021/05/22 08:33:18;;;;;;;6.37;2.92;;;;;;;20.86;44.25;100965.28;1695917;80;21535;-88
2021/05/22 08:35:47;;;;;;;4.65;2.10;;;;;;;20.92;44.59;100968.55;1648783;83;21610;-91
2021/05/22 08:38:16;;;;;;;5.40;1.95;;;;;;;20.99;44.92;100957.58;1719076;82;21037;-91
2021/05/22 09:46:30;;;;;;;8.35;1.62;;;;;;;20.93;41.92;100949.03;1480170;95;21243;-91
2021/05/22 09:57:46;;;;;;;5.50;1.67;;;;;;;21.04;41.02;100955.73;;;;
2021/05/22 10:18:42;;;;;;;;;;;;;;;;;;;;;
2021/05/22 10:43:56;;;;;;;9.78;1.62;;;;;;;22.65;37.99;100952.30;1306573;107;21271;-86
2021/05/22 10:46:22;;;;;;;1.80;1.40;;;;;;;22.84;36.92;100969.96;1325850;102;21305;-83
2021/05/22 10:49:02;;;;;;;2.12;1.30;;;;;;;22.87;37.13;100972.74;1431008;88;21296;-86
2021/05/22 10:51:36;;;;;;;2.27;1.30;;;;;;;22.88;36.50;100977.85;1664133;84;21145;-83
2021/05/22 10:54:13;;;;;;;1.50;1.40;;;;;;;22.90;36.41;100975.84;1650635;85;21093;-83
2021/05/22 10:57:03;;;;;;;3.72;1.37;;;;;;;22.91;38.71;100976.16;1640891;86;21155;-86
2021/05/22 10:59:30;;;;;;;1.70;1.50;;;;;;;22.92;35.56;100971.17;1663087;84;21083;-88
2021/05/22 11:01:57;;;;;;;3.15;1.70;;;;;;;22.97;36.95;100964.78;1675981;84;21720;-87
2021/05/22 11:04:27;;;;;;;2.58;1.47;;;;;;;23.03;36.50;100966.38;1653223;86;21097;-84
2021/05/22 11:07:02;;;;;;;7.33;1.72;;;;;;;23.02;35.65;100971.38;1614516;86;21667;-83
2021/05/22 11:09:36;;;;;;;1.45;1.30;;;;;;;22.99;35.94;100963.28;1664022;85;21172;-84
2021/05/22 11:12:20;;;;;;;2.47;1.75;;;;;;;23.00;36.09;100961.75;1634770;86;21091;-86
